Time;durP1;ratioP1;P1;durP2;ratioP2;P2;SDS_P1;SDS_P2;PMS_P1;PMS_P2;Temp;Humidity;BMP_temperature;BMP_pressure;BME280_temperature;BME280_humidity;BME280_pressure;Samples;Min_cycle;Max_cycle;Signal;HPM_P1;HPM_P2
2022/09/30 00:00:55;;;;;;;8.07;7.27;;;;;;;8.42;100.00;153521.84;5073258;28;20456;-85
2022/09/30 00:03:23;;;;;;;10.40;6.97;;;;;;;8.43;100.00;153524.47;5074050;28;20491;-85
2022/09/30 00:05:56;;;;;;;8.20;7.03;;;;;;;8.43;100.00;153525.75;5045073;28;20484;-83
2022/09/30 00:08:23;;;;;;;7.70;6.90;;;;;;;8.42;100.00;153523.16;5056072;28;20853;-85
2022/09/30 00:10:59;;;;;;;9.80;7.80;;;;;;;8.44;100.00;153528.34;5053915;28;20442;-85
2022/09/30 00:13:26;;;;;;;8.47;6.87;;;;;;;8.50;100.00;153543.84;5049123;28;20450;-85
2022/09/30 00:15:53;;;;;;;8.60;7.53;;;;;;;8.57;100.00;153560.66;5062669;28;20426;-85
2022/09/30 00:18:19;;;;;;;9.70;7.43;;;;;;;8.58;100.00;153563.22;5060490;28;20779;-85
2022/09/30 00:20:47;;;;;;;9.43;7.33;;;;;;;8.61;100.00;153570.97;5053743;28;20442;-85
2022/09/30 00:23:14;;;;;;;9.27;7.20;;;;;;;8.60;100.00;153567.13;5052961;28;20458;-85
2022/09/30 00:25:40;;;;;;;8.87;7.33;;;;;;;8.57;100.00;153561.97;5053203;28;20458;-85
2022/09/30 00:28:07;;;;;;;12.90;7.50;;;;;;;8.58;100.00;153564.53;5032742;28;20475;-85
2022/09/30 00:30:34;;;;;;;8.37;7.57;;;;;;;8.58;100.00;153563.22;5035765;28;20424;-85
2022/09/30 00:33:01;;;;;;;7.33;6.60;;;;;;;8.60;100.00;153567.13;5051729;28;20457;-86
2022/09/30 00:35:28;;;;;;;9.53;8.43;;;;;;;8.61;100.00;153569.69;5048170;28;20946;-85
2022/09/30 00:37:56;;;;;;;11.10;8.50;;;;;;;8.62;100.00;153572.28;5055493;28;20497;-85
2022/09/30 00:40:23;;;;;;;9.70;8.70;;;;;;;8.64;100.00;153577.44;5059154;28;20457;-85
2022/09/30 00:42:49;;;;;;;9.80;7.87;;;;;;;8.66;100.00;153582.66;5060593;28;20879;-85
2022/09/30 00:45:17;;;;;;;9.87;8.53;;;;;;;8.68;100.00;153587.81;5056391;28;20488;-85
2022/09/30 00:47:47;;;;;;;10.63;8.47;;;;;;;8.71;100.00;153595.56;5059879;28;20477;-86
2022/09/30 00:50:18;;;;;;;9.37;7.77;;;;;;;8.75;100.00;153605.91;5044300;28;20938;-85
2022/09/30 00:52:49;;;;;;;8.60;7.60;;;;;;;8.77;100.00;153611.06;5054490;28;20455;-85
2022/09/30 00:55:26;;;;;;;8.93;8.00;;;;;;;8.79;100.00;153616.25;5054952;28;20471;-85
2022/09/30 00:57:52;;;;;;;10.17;8.20;;;;;;;8.79;100.00;153617.50;5062784;28;20474;-85
2022/09/30 01:00:19;;;;;;;9.40;7.87;;;;;;;8.81;100.00;153621.41;5060698;28;20769;-85
2022/09/30 01:02:46;;;;;;;10.67;9.17;;;;;;;8.79;100.00;153617.50;5058151;28;20485;-85
2022/09/30 01:05:22;;;;;;;11.00;8.77;;;;;;;8.80;100.00;153620.13;5065125;28;20478;-85
2022/09/30 01:07:49;;;;;;;10.47;9.10;;;;;;;8.87;100.00;153638.22;5057589;28;20465;-85
2022/09/30 01:10:17;;;;;;;11.33;9.33;;;;;;;8.92;100.00;153649.88;5045096;28;20537;-85
2022/09/30 01:12:44;;;;;;;10.70;9.47;;;;;;;8.91;100.00;153648.56;5056717;28;20511;-85
2022/09/30 01:15:11;;;;;;;9.70;7.57;;;;;;;8.90;100.00;153644.66;5021956;28;20448;-85
2022/09/30 01:17:46;;;;;;;11.83;8.93;;;;;;;8.90;100.00;153645.97;5039681;28;20472;-85
2022/09/30 01:20:31;;;;;;;9.80;8.03;;;;;;;8.89;100.00;153642.13;5038063;28;20435;-87
2022/09/30 01:23:10;;;;;;;11.60;8.03;;;;;;;8.88;100.00;153640.81;5042444;28;22039;-85
2022/09/30 01:26:16;;;;;;;12.80;8.20;;;;;;;8.86;100.00;153635.66;5046464;28;20454;-85
2022/09/30 01:29:04;;;;;;;11.43;8.10;;;;;;;8.95;100.00;153658.91;5025959;28;20482;-85
2022/09/30 01:31:42;;;;;;;9.70;8.40;;;;;;;8.89;100.00;153642.13;5056139;28;20444;-85
2022/09/30 01:34:14;;;;;;;11.00;9.90;;;;;;;8.87;100.00;153636.94;5047800;28;20442;-86
2022/09/30 01:36:48;;;;;;;13.57;9.07;;;;;;;8.95;100.00;153657.59;5041025;28;20445;-85
2022/09/30 01:39:27;;;;;;;10.17;9.00;;;;;;;8.90;100.00;153644.66;5059278;28;20483;-85
2022/09/30 01:41:57;;;;;;;9.43;8.40;;;;;;;8.85;100.00;153631.75;5052092;28;20532;-85
2022/09/30 01:44:33;;;;;;;10.20;8.40;;;;;;;8.84;100.00;153629.19;5024011;28;20468;-85
2022/09/30 01:47:05;;;;;;;11.20;9.60;;;;;;;8.81;100.00;153621.41;5057486;28;20450;-85
2022/09/30 01:49:37;;;;;;;11.83;9.50;;;;;;;8.78;100.00;153614.97;5065496;28;20459;-86
2022/09/30 01:52:06;;;;;;;10.13;8.70;;;;;;;8.78;100.00;153613.66;5019663;28;20446;-85
2022/09/30 01:54:37;;;;;;;11.20;9.53;;;;;;;8.74;100.00;153603.28;5035971;28;20438;-85
2022/09/30 01:57:08;;;;;;;10.77;9.63;;;;;;;8.73;100.00;153600.72;5035014;28;20416;-86
2022/09/30 01:59:37;;;;;;;13.63;10.13;;;;;;;8.72;100.00;153598.13;5039657;28;20454;-86
2022/09/30 02:02:09;;;;;;;12.47;10.37;;;;;;;8.72;100.00;153599.44;5053472;28;20552;-85
2022/09/30 02:04:39;;;;;;;12.63;10.97;;;;;;;8.71;100.00;153596.81;5073202;28;20784;-84
2022/09/30 02:07:09;;;;;;;14.43;12.67;;;;;;;8.71;100.00;153595.56;5066272;28;20465;-86
2022/09/30 02:09:39;;;;;;;15.93;12.83;;;;;;;8.69;100.00;153590.38;5051868;28;20498;-85
2022/09/30 02:12:08;;;;;;;12.80;10.47;;;;;;;8.67;100.00;153585.22;5001944;28;20451;-85
2022/09/30 02:14:37;;;;;;;11.27;9.00;;;;;;;8.66;100.00;153582.66;5027964;28;20505;-85
2022/09/30 02:17:07;;;;;;;9.17;8.27;;;;;;;8.60;100.00;153567.13;5050584;28;20431;-85
2022/09/30 02:19:39;;;;;;;9.07;7.20;;;;;;;8.60;100.00;153567.13;5039055;28;20456;-85
2022/09/30 02:22:08;;;;;;;10.20;8.53;;;;;;;8.58;100.00;153563.22;5070412;28;20517;-85
2022/09/30 02:24:36;;;;;;;9.93;8.50;;;;;;;8.54;100.00;153552.91;5043444;28;20454;-85
2022/09/30 02:27:04;;;;;;;9.87;8.87;;;;;;;8.54;100.00;153554.19;5021760;28;20455;-85
2022/09/30 02:29:35;;;;;;;12.10;9.17;;;;;;;8.50;100.00;153543.84;5032351;28;20681;-85
2022/09/30 02:32:05;;;;;;;10.70;9.20;;;;;;;8.50;100.00;153543.84;5023474;28;20443;-85
2022/09/30 02:34:35;;;;;;;8.90;8.00;;;;;;;8.50;100.00;153542.53;5049219;28;20567;-85
2022/09/30 02:37:06;;;;;;;9.93;8.93;;;;;;;8.46;100.00;153533.53;5063164;28;20472;-85
2022/09/30 02:39:37;;;;;;;9.07;8.07;;;;;;;8.43;100.00;153525.75;5072073;28;20438;-85
2022/09/30 02:42:08;;;;;;;14.80;9.50;;;;;;;8.43;100.00;153525.75;5037483;28;20450;-85
2022/09/30 02:44:35;;;;;;;10.30;9.30;;;;;;;8.43;100.00;153524.47;5051398;28;20811;-85
2022/09/30 02:47:12;;;;;;;11.03;9.70;;;;;;;8.41;100.00;153520.59;5051478;28;20457;-85
2022/09/30 02:49:46;;;;;;;11.00;9.90;;;;;;;8.42;100.00;153523.16;5067933;28;20477;-85
2022/09/30 02:52:21;;;;;;;13.27;10.80;;;;;;;8.43;100.00;153524.47;5066694;28;20968;-85
2022/09/30 02:54:52;;;;;;;14.00;10.90;;;;;;;8.44;100.00;153528.34;5040287;28;20892;-85
2022/09/30 02:57:24;;;;;;;11.70;10.43;;;;;;;8.43;100.00;153525.75;5033149;28;20631;-85
2022/09/30 02:59:52;;;;;;;12.03;10.83;;;;;;;8.44;100.00;153528.34;5055291;28;20756;-85
2022/09/30 03:02:19;;;;;;;11.80;10.60;;;;;;;8.44;100.00;153528.34;5075878;28;20461;-85
2022/09/30 03:04:48;;;;;;;13.07;10.60;;;;;;;8.45;100.00;153529.63;5048512;28;20836;-84
2022/09/30 03:07:15;;;;;;;13.43;10.07;;;;;;;8.42;100.00;153523.16;5054287;28;20468;-85
2022/09/30 03:09:41;;;;;;;12.87;10.13;;;;;;;8.40;100.00;153518.00;5055498;28;20478;-84
2022/09/30 03:12:16;;;;;;;11.40;10.20;;;;;;;8.41;100.00;153520.59;5046162;28;20455;-85
2022/09/30 03:14:56;;;;;;;10.57;9.47;;;;;;;8.39;100.00;153514.13;5060646;28;20460;-85
2022/09/30 03:17:31;;;;;;;11.90;9.67;;;;;;;8.41;100.00;153519.28;5075142;28;20413;-85
2022/09/30 03:20:17;;;;;;;11.00;9.87;;;;;;;8.40;100.00;153518.00;5062434;28;20454;-85
2022/09/30 03:22:55;;;;;;;11.40;9.80;;;;;;;8.39;100.00;153515.38;5054941;28;20447;-85
2022/09/30 03:25:30;;;;;;;9.77;8.77;;;;;;;8.42;100.00;153523.16;5035579;28;20434;-85
2022/09/30 03:28:11;;;;;;;10.43;9.03;;;;;;;8.42;100.00;153523.16;5038394;28;20470;-85
2022/09/30 03:30:44;;;;;;;11.37;9.17;;;;;;;8.44;100.00;153528.34;5054711;28;20433;-85
2022/09/30 03:33:16;;;;;;;12.20;9.40;;;;;;;8.43;100.00;153525.75;5052811;28;20457;-85
2022/09/30 03:35:49;;;;;;;11.60;10.40;;;;;;;8.41;100.00;153520.59;5043336;28;20428;-85
2022/09/30 03:38:24;;;;;;;10.07;8.80;;;;;;;8.40;100.00;153518.00;5035720;28;20542;-85
2022/09/30 03:40:57;;;;;;;10.40;9.27;;;;;;;8.38;100.00;153512.84;5043314;28;20434;-85
2022/09/30 03:43:29;;;;;;;10.97;8.60;;;;;;;8.40;100.00;153516.69;5037500;28;20454;-84
2022/09/30 03:46:00;;;;;;;12.60;10.80;;;;;;;8.30;100.00;153492.16;5056341;28;20414;-84
2022/09/30 03:48:29;;;;;;;10.90;9.80;;;;;;;8.30;100.00;153492.16;5054731;28;20470;-84
2022/09/30 03:50:58;;;;;;;13.07;10.50;;;;;;;8.23;100.00;153474.03;5056051;28;20935;-85
2022/09/30 03:53:26;;;;;;;14.33;10.03;;;;;;;8.15;100.00;153453.34;5054661;28;20542;-84
2022/09/30 03:55:53;;;;;;;12.53;9.77;;;;;;;8.15;100.00;153453.34;5055405;28;20435;-84
2022/09/30 03:58:22;;;;;;;13.70;11.10;;;;;;;8.16;100.00;153455.91;5056089;28;20556;-85
2022/09/30 04:00:51;;;;;;;12.30;10.47;;;;;;;8.14;100.00;153450.75;5035896;28;20803;-84
2022/09/30 04:03:19;;;;;;;12.63;10.53;;;;;;;8.15;100.00;153452.03;5066978;28;20454;-84
2022/09/30 04:05:46;;;;;;;12.63;9.20;;;;;;;8.13;100.00;153448.13;5069614;28;20467;-84
2022/09/30 04:08:14;;;;;;;10.60;9.47;;;;;;;8.14;100.00;153449.44;5071522;28;20466;-84
2022/09/30 04:10:42;;;;;;;11.07;9.50;;;;;;;8.11;100.00;153443.00;5071078;28;20438;-84
2022/09/30 04:13:09;;;;;;;10.20;9.10;;;;;;;8.10;100.00;153440.38;5053699;28;20441;-84
2022/09/30 04:15:36;;;;;;;13.70;9.73;;;;;;;8.08;100.00;153433.94;5051809;28;20447;-84
2022/09/30 04:18:04;;;;;;;11.63;10.43;;;;;;;8.05;100.00;153426.22;5052644;28;20462;-84
2022/09/30 04:20:31;;;;;;;12.67;9.43;;;;;;;8.02;100.00;153418.44;5053647;28;20788;-84
2022/09/30 04:22:58;;;;;;;11.10;9.70;;;;;;;8.01;100.00;153417.16;5054318;28;20491;-84
2022/09/30 04:25:26;;;;;;;12.37;9.97;;;;;;;8.00;100.00;153414.53;5053962;28;20431;-84
2022/09/30 04:27:53;;;;;;;11.00;8.57;;;;;;;7.99;100.00;153412.00;5053481;28;20489;-84
2022/09/30 04:30:20;;;;;;;10.53;9.20;;;;;;;7.97;100.00;153406.78;5051367;28;20459;-85
2022/09/30 04:32:46;;;;;;;10.23;8.80;;;;;;;7.94;100.00;153399.09;5040157;28;20450;-85
2022/09/30 04:35:13;;;;;;;10.97;8.67;;;;;;;7.91;100.00;153392.63;5052785;28;20451;-84
2022/09/30 04:37:42;;;;;;;9.60;8.60;;;;;;;7.92;100.00;153395.19;5054569;28;20435;-84
2022/09/30 04:40:09;;;;;;;11.47;9.53;;;;;;;7.94;100.00;153399.09;5067597;28;20861;-84
2022/09/30 04:42:38;;;;;;;11.90;10.17;;;;;;;7.90;100.00;153390.03;5041112;28;20485;-84
2022/09/30 04:45:05;;;;;;;10.30;9.30;;;;;;;7.88;100.00;153384.88;5034460;28;20529;-84
2022/09/30 04:47:32;;;;;;;13.00;10.50;;;;;;;7.83;100.00;153370.66;5048587;28;20440;-84
2022/09/30 04:49:59;;;;;;;11.50;10.10;;;;;;;7.75;100.00;153349.97;5051048;28;20462;-84
2022/09/30 04:52:26;;;;;;;12.77;10.37;;;;;;;7.72;100.00;153342.22;5033702;28;20446;-84
2022/09/30 04:54:52;;;;;;;11.03;9.93;;;;;;;7.63;100.00;153318.94;5033849;28;20448;-84
2022/09/30 04:57:19;;;;;;;12.20;9.70;;;;;;;7.60;100.00;153311.25;5034888;28;20615;-84
2022/09/30 04:59:48;;;;;;;12.90;9.80;;;;;;;7.55;100.00;153299.59;5072172;28;20441;-84
2022/09/30 05:02:15;;;;;;;10.40;9.20;;;;;;;7.51;100.00;153287.97;5055020;28;20847;-84
2022/09/30 05:04:42;;;;;;;10.53;8.97;;;;;;;7.47;100.00;153277.63;5038115;28;20459;-84
2022/09/30 05:07:09;;;;;;;13.90;9.40;;;;;;;7.43;100.00;153267.31;5040074;28;20438;-84
2022/09/30 05:09:36;;;;;;;10.63;9.53;;;;;;;7.40;100.00;153259.53;5039456;28;20502;-84
2022/09/30 05:12:03;;;;;;;11.00;9.37;;;;;;;7.36;100.00;153251.78;5043672;28;20510;-84
2022/09/30 05:14:30;;;;;;;10.70;9.60;;;;;;;7.30;100.00;153236.34;5051001;28;20540;-84
2022/09/30 05:16:58;;;;;;;14.80;9.80;;;;;;;7.29;100.00;153233.72;5037641;28;20513;-84
2022/09/30 05:19:24;;;;;;;23.23;11.40;;;;;;;7.25;100.00;153223.38;5040669;28;20447;-84
2022/09/30 05:21:51;;;;;;;75.10;14.30;;;;;;;7.23;100.00;153218.22;5037746;28;20502;-85
2022/09/30 05:24:18;;;;;;;15.43;10.17;;;;;;;7.17;100.00;153202.75;5043596;28;20505;-84
2022/09/30 05:26:45;;;;;;;37.93;11.37;;;;;;;7.13;100.00;153192.41;5043590;28;20465;-85
2022/09/30 05:29:12;;;;;;;81.87;13.33;;;;;;;7.14;100.00;153195.00;5038299;28;20522;-84
2022/09/30 05:31:41;;;;;;;10.33;8.97;;;;;;;7.12;100.00;153189.81;5040459;28;20627;-85
2022/09/30 05:34:09;;;;;;;17.73;9.77;;;;;;;7.10;100.00;153184.66;5051090;28;20452;-85
2022/09/30 05:36:36;;;;;;;16.70;8.90;;;;;;;7.08;100.00;153178.19;5048506;28;20851;-84
2022/09/30 05:39:02;;;;;;;23.17;11.07;;;;;;;7.06;100.00;153174.34;5044123;28;20459;-85
2022/09/30 05:41:29;;;;;;;18.27;9.70;;;;;;;7.04;100.00;153169.16;5034797;28;20444;-84
2022/09/30 05:44:00;;;;;;;9.63;8.60;;;;;;;7.03;100.00;153165.28;5034388;28;20442;-84
2022/09/30 05:46:26;;;;;;;9.50;8.20;;;;;;;7.05;100.00;153170.44;5041383;28;20452;-85
2022/09/30 05:48:54;;;;;;;9.63;8.60;;;;;;;7.03;100.00;153166.59;5044257;28;20471;-85
2022/09/30 05:51:22;;;;;;;8.50;7.70;;;;;;;7.05;100.00;153171.75;5037238;28;20784;-85
2022/09/30 05:53:52;;;;;;;9.90;8.40;;;;;;;7.09;100.00;153180.81;5037766;28;20444;-86
2022/09/30 05:56:19;;;;;;;14.97;8.77;;;;;;;7.11;100.00;153185.94;5013329;28;20558;-85
2022/09/30 05:58:50;;;;;;;12.20;9.87;;;;;;;7.20;100.00;153209.22;5046197;28;20540;-85
2022/09/30 06:01:20;;;;;;;10.27;9.17;;;;;;;7.24;100.00;153220.81;5036336;28;20648;-74
2022/09/30 06:03:47;;;;;;;12.87;11.00;;;;;;;7.29;100.00;153232.44;5020563;28;20547;-74
2022/09/30 06:06:15;;;;;;;13.93;12.50;;;;;;;7.35;100.00;153247.94;5051705;28;20471;-74
2022/09/30 06:08:43;;;;;;;66.63;57.70;;;;;;;7.46;100.00;153275.06;5036438;28;20938;-74
2022/09/30 06:11:12;;;;;;;28.80;26.00;;;;;;;7.57;100.00;153303.47;5049052;28;20566;-74
2022/09/30 06:13:39;;;;;;;26.13;23.33;;;;;;;7.78;100.00;153357.72;5035453;28;20448;-73
2022/09/30 06:16:06;;;;;;;21.47;18.90;;;;;;;8.04;100.00;153424.91;5046785;28;20443;-74
2022/09/30 06:18:33;;;;;;;19.77;17.63;;;;;;;8.34;100.00;153502.47;5047810;28;20448;-74
2022/09/30 06:21:02;;;;;;;19.30;17.17;;;;;;;8.63;100.00;153574.88;5035339;28;20449;-74
2022/09/30 06:23:29;;;;;;;17.30;15.50;;;;;;;8.95;100.00;153658.91;5046018;28;20778;-74
2022/09/30 06:25:57;;;;;;;17.70;15.43;;;;;;;9.31;100.00;153750.75;5042919;28;20441;-74
2022/09/30 06:28:26;;;;;;;16.87;14.23;;;;;;;9.63;100.00;153833.53;5049813;28;20439;-74
2022/09/30 06:30:53;;;;;;;14.23;12.43;;;;;;;9.96;100.00;153916.31;5049037;28;20475;-74
2022/09/30 06:33:20;;;;;;;13.27;10.73;;;;;;;10.11;100.00;153955.19;5049172;28;20455;-74
2022/09/30 06:35:47;;;;;;;10.43;9.43;;;;;;;10.17;100.00;153970.72;5051617;28;20427;-74
2022/09/30 06:38:15;;;;;;;9.77;8.30;;;;;;;10.34;100.00;154016.06;5051112;28;20442;-74
2022/09/30 06:40:42;;;;;;;10.83;9.83;;;;;;;10.45;100.00;154041.94;5051409;28;20948;-74
2022/09/30 06:43:10;;;;;;;9.07;8.13;;;;;;;10.59;100.00;154079.47;5050743;28;20439;-74
2022/09/30 06:45:37;;;;;;;9.67;8.67;;;;;;;10.79;100.00;154130.00;5049864;28;20497;-74
2022/09/30 06:48:05;;;;;;;12.63;9.43;;;;;;;11.01;100.00;154188.25;5050531;28;20434;-74
2022/09/30 06:50:32;;;;;;;9.70;8.70;;;;;;;11.23;100.00;154242.66;5050900;28;20484;-74
2022/09/30 06:53:00;;;;;;;10.73;9.13;;;;;;;11.37;100.00;154278.94;5050888;28;20433;-74
2022/09/30 06:55:27;;;;;;;10.40;9.37;;;;;;;11.55;100.00;154325.59;5050677;28;20862;-74
2022/09/30 06:57:54;;;;;;;10.07;9.07;;;;;;;11.58;100.00;154333.38;5040226;28;20538;-74
2022/09/30 07:00:23;;;;;;;10.30;8.80;;;;;;;11.41;100.00;154289.34;5048975;28;21007;-74
2022/09/30 07:02:49;;;;;;;8.47;7.47;;;;;;;11.21;100.00;154237.47;5051049;28;20955;-74
2022/09/30 07:05:17;;;;;;;8.00;7.20;;;;;;;10.84;100.00;154144.25;5048992;28;20536;-74
2022/09/30 07:07:44;;;;;;;11.03;8.27;;;;;;;10.64;100.00;154091.16;5051679;28;20937;-74
2022/09/30 07:10:11;;;;;;;8.63;7.83;;;;;;;10.47;100.00;154048.41;5049738;28;20470;-74
2022/09/30 07:12:38;;;;;;;12.10;8.90;;;;;;;10.45;100.00;154041.94;5045007;28;20449;-74
2022/09/30 07:15:05;;;;;;;9.50;8.30;;;;;;;10.43;100.00;154038.09;5040810;28;20462;-74
2022/09/30 07:17:33;;;;;;;9.93;8.90;;;;;;;10.50;100.00;154056.19;5031158;28;20924;-74
2022/09/30 07:20:00;;;;;;;10.87;8.60;;;;;;;10.47;100.00;154047.13;5031346;28;20450;-74
2022/09/30 07:22:27;;;;;;;11.50;9.40;;;;;;;10.50;100.00;154056.19;5040492;28;20450;-74
2022/09/30 07:24:53;;;;;;;10.00;9.00;;;;;;;10.53;100.00;154063.97;5051262;28;20516;-74
2022/09/30 07:27:20;;;;;;;9.90;8.83;;;;;;;10.44;100.00;154040.63;5039380;28;20737;-74
2022/09/30 07:29:47;;;;;;;10.00;9.00;;;;;;;10.43;100.00;154038.09;5044755;28;20470;-74
2022/09/30 07:32:14;;;;;;;9.33;8.43;;;;;;;10.35;100.00;154017.38;5048871;28;20977;-74
2022/09/30 07:34:42;;;;;;;11.37;10.17;;;;;;;10.30;100.00;154004.38;5035271;28;20555;-74
2022/09/30 07:37:10;;;;;;;12.50;11.20;;;;;;;10.30;100.00;154004.38;5044931;28;20961;-74
2022/09/30 07:39:37;;;;;;;11.13;9.07;;;;;;;10.26;100.00;153994.03;5047923;28;20446;-74
2022/09/30 07:42:04;;;;;;;10.20;9.20;;;;;;;10.32;100.00;154009.59;5046676;28;20451;-74
2022/09/30 07:44:31;;;;;;;9.80;8.77;;;;;;;10.37;100.00;154023.84;5042543;28;20454;-74
2022/09/30 07:46:58;;;;;;;18.90;15.10;;;;;;;10.43;100.00;154038.09;5049640;28;20545;-74
2022/09/30 07:49:25;;;;;;;15.43;13.83;;;;;;;10.51;100.00;154058.75;5049834;28;20473;-74
2022/09/30 07:51:55;;;;;;;21.73;15.77;;;;;;;10.76;100.00;154122.22;5030379;28;20431;-74
2022/09/30 07:54:24;;;;;;;16.67;14.00;;;;;;;10.73;100.00;154115.75;5038466;28;20478;-74
2022/09/30 07:56:51;;;;;;;15.23;12.80;;;;;;;10.77;100.00;154126.13;5052504;28;20442;-74
2022/09/30 07:59:18;;;;;;;14.40;12.77;;;;;;;10.81;100.00;154136.47;5050326;28;20447;-74
2022/09/30 08:01:45;;;;;;;19.40;14.57;;;;;;;10.88;100.00;154154.56;5052183;28;20798;-74
2022/09/30 08:04:12;;;;;;;14.83;12.00;;;;;;;10.90;100.00;154159.78;5058447;28;20453;-74
2022/09/30 08:06:41;;;;;;;15.33;12.00;;;;;;;10.93;100.00;154167.53;5070350;28;20472;-74
2022/09/30 08:09:11;;;;;;;17.90;12.40;;;;;;;11.00;100.00;154185.69;5048319;28;20469;-74
2022/09/30 08:11:40;;;;;;;14.07;11.10;;;;;;;11.02;100.00;154190.84;5050825;28;20983;-74
2022/09/30 08:14:07;;;;;;;13.23;11.83;;;;;;;11.11;100.00;154211.59;5044958;28;20538;-74
2022/09/30 08:16:33;;;;;;;14.60;11.50;;;;;;;11.14;100.00;154219.38;5067818;28;20534;-74
2022/09/30 08:19:01;;;;;;;12.00;10.70;;;;;;;11.23;100.00;154242.66;5053016;28;20769;-74
2022/09/30 08:21:29;;;;;;;13.03;10.93;;;;;;;11.30;100.00;154260.81;5054227;28;20445;-74
2022/09/30 08:23:56;;;;;;;13.63;11.33;;;;;;;11.30;100.00;154260.81;5062389;28;20438;-74
2022/09/30 08:26:24;;;;;;;15.00;12.20;;;;;;;11.32;100.00;154267.31;5058102;28;20436;-74
2022/09/30 08:28:51;;;;;;;14.77;13.17;;;;;;;11.22;100.00;154240.09;5043637;28;20443;-74
2022/09/30 08:31:19;;;;;;;13.93;12.00;;;;;;;11.32;100.00;154266.00;5050089;28;20467;-74
2022/09/30 08:33:46;;;;;;;14.30;12.30;;;;;;;11.54;100.00;154324.28;5048720;28;20451;-74
2022/09/30 08:36:14;;;;;;;14.03;11.60;;;;;;;11.58;100.00;154333.38;5038751;28;20794;-74
2022/09/30 08:38:42;;;;;;;14.77;13.27;;;;;;;11.61;100.00;154341.16;5037871;28;20466;-74
2022/09/30 08:41:25;;;;;;;15.60;12.47;;;;;;;11.70;100.00;154364.53;5042676;28;20443;-74
2022/09/30 08:44:01;;;;;;;17.20;13.13;;;;;;;11.63;100.00;154346.31;5041864;28;20478;-74
2022/09/30 08:46:36;;;;;;;17.73;14.67;;;;;;;11.73;100.00;154372.28;5063770;28;20444;-74
2022/09/30 08:49:25;;;;;;;16.43;14.27;;;;;;;11.67;99.74;154356.72;5047806;28;20457;-74
2022/09/30 08:51:52;;;;;;;17.00;14.27;;;;;;;11.69;100.00;154361.94;5052540;28;20809;-74
2022/09/30 08:54:21;;;;;;;15.97;13.67;;;;;;;11.66;100.00;154354.09;5056022;28;20460;-74
2022/09/30 08:56:48;;;;;;;16.37;13.40;;;;;;;11.49;99.45;154310.06;5062017;28;20446;-74
2022/09/30 08:59:26;;;;;;;19.97;15.50;;;;;;;11.42;100.00;154291.91;5052856;28;20431;-74
2022/09/30 09:01:58;;;;;;;16.00;14.10;;;;;;;11.47;100.00;154304.84;5048513;28;20448;-74
2022/09/30 09:04:25;;;;;;;16.23;13.77;;;;;;;11.49;100.00;154310.06;5033685;28;20443;-75
2022/09/30 09:06:56;;;;;;;17.63;15.20;;;;;;;11.46;100.00;154302.28;5052446;28;20435;-74
2022/09/30 09:09:33;;;;;;;19.27;13.13;;;;;;;11.36;100.00;154276.34;5045312;28;20451;-74
2022/09/30 09:12:07;;;;;;;16.10;13.73;;;;;;;11.44;100.00;154297.06;5049636;28;20442;-74
2022/09/30 09:14:51;;;;;;;15.47;12.80;;;;;;;11.46;100.00;154302.28;5037329;28;20447;-74
2022/09/30 09:17:30;;;;;;;17.10;13.60;;;;;;;11.49;100.00;154311.31;5038414;28;20436;-74
2022/09/30 09:20:03;;;;;;;15.90;10.83;;;;;;;11.60;100.00;154338.53;5052837;28;20423;-74
2022/09/30 09:22:30;;;;;;;14.20;11.93;;;;;;;11.73;100.00;154371.03;5052873;28;20435;-75
2022/09/30 09:24:57;;;;;;;13.00;11.60;;;;;;;11.99;100.00;154438.41;5049188;28;20467;-74
2022/09/30 09:27:35;;;;;;;13.67;11.23;;;;;;;12.05;99.66;154455.25;5039524;28;20546;-74
2022/09/30 09:30:11;;;;;;;9.73;8.03;;;;;;;12.04;94.67;154452.69;5051540;28;20474;-74
2022/09/30 09:32:38;;;;;;;9.43;8.20;;;;;;;12.15;95.02;154479.91;5050440;28;20869;-74
2022/09/30 09:35:13;;;;;;;11.30;9.13;;;;;;;12.13;93.84;154474.66;5050725;28;20537;-74
2022/09/30 09:40:34;;;;;;;11.50;10.10;;;;;;;11.90;95.38;154415.06;5051684;28;20937;-74
2022/09/30 09:43:14;;;;;;;12.20;9.80;;;;;;;12.03;95.57;154450.06;5051162;28;20455;-74
2022/09/30 09:45:49;;;;;;;10.80;9.70;;;;;;;11.99;95.14;154439.66;5051159;28;20540;-74
2022/09/30 09:48:16;;;;;;;11.60;10.30;;;;;;;12.09;96.25;154464.31;5056114;28;20500;-74
2022/09/30 09:50:50;;;;;;;12.77;10.73;;;;;;;12.19;95.61;154490.25;5036767;28;20485;-74
2022/09/30 09:53:27;;;;;;;11.37;10.07;;;;;;;12.40;96.10;154544.69;5045377;28;20430;-74
2022/09/30 09:55:58;;;;;;;13.23;10.73;;;;;;;12.55;96.56;154582.34;5050519;28;20483;-74
2022/09/30 09:58:24;;;;;;;11.53;9.93;;;;;;;12.66;94.62;154610.81;5044818;28;20461;-74
2022/09/30 10:01:09;;;;;;;10.70;9.47;;;;;;;12.56;93.83;154584.91;5050285;28;20454;-74
2022/09/30 10:03:37;;;;;;;10.97;9.60;;;;;;;12.61;94.54;154597.84;5059779;28;20547;-74
2022/09/30 10:06:06;;;;;;;12.40;10.57;;;;;;;12.60;92.17;154596.56;5070359;28;20897;-75
2022/09/30 10:08:34;;;;;;;10.70;9.57;;;;;;;12.55;93.32;154582.34;5054597;28;20782;-74
2022/09/30 10:11:03;;;;;;;11.80;10.60;;;;;;;12.61;94.01;154597.84;5049548;28;20641;-74
2022/09/30 10:13:31;;;;;;;10.63;9.47;;;;;;;12.64;90.50;154605.66;5043656;28;20462;-74
2022/09/30 10:16:00;;;;;;;11.20;8.67;;;;;;;12.60;90.49;154595.28;5039452;28;20762;-75
2022/09/30 10:18:28;;;;;;;13.63;9.47;;;;;;;12.69;91.83;154618.63;5054800;28;20457;-75
2022/09/30 10:20:57;;;;;;;10.73;8.83;;;;;;;12.76;91.87;154636.81;5052957;28;20431;-74
2022/09/30 10:23:30;;;;;;;12.30;7.77;;;;;;;12.75;90.02;154634.19;5050746;28;20442;-75
2022/09/30 10:25:59;;;;;;;7.83;6.60;;;;;;;12.89;86.32;154670.53;5050726;28;20455;-74
2022/09/30 10:28:28;;;;;;;8.13;6.73;;;;;;;12.76;85.56;154638.06;5046573;28;20512;-74
2022/09/30 10:31:10;;;;;;;6.30;4.73;;;;;;;12.86;85.17;154661.44;5051673;28;20808;-74
2022/09/30 10:33:42;;;;;;;7.37;4.90;;;;;;;12.94;82.26;154682.19;5048646;28;20481;-74
2022/09/30 10:36:12;;;;;;;4.90;3.30;;;;;;;12.87;77.29;154665.28;5041317;28;20450;-74
2022/09/30 10:38:47;;;;;;;4.37;3.90;;;;;;;12.73;79.74;154630.28;5052880;28;20806;-74
2022/09/30 10:41:21;;;;;;;4.77;3.83;;;;;;;12.77;80.17;154640.66;5049930;28;20805;-74
2022/09/30 10:44:03;;;;;;;5.77;5.10;;;;;;;12.79;79.54;154644.53;5050327;28;20540;-75
2022/09/30 10:46:35;;;;;;;4.33;3.73;;;;;;;12.87;73.18;154665.28;5048770;28;20420;-85
2022/09/30 10:49:09;;;;;;;4.70;4.20;;;;;;;12.94;77.58;154683.50;5048113;28;20500;-85
2022/09/30 10:51:36;;;;;;;7.50;5.20;;;;;;;13.01;81.01;154701.63;5047159;28;20516;-86
2022/09/30 10:54:04;;;;;;;7.30;6.63;;;;;;;13.05;82.65;154710.72;5042396;28;20816;-86
2022/09/30 10:56:45;;;;;;;5.93;4.93;;;;;;;13.15;80.76;154738.03;5054689;28;20454;-86
2022/09/30 10:59:18;;;;;;;8.70;7.47;;;;;;;13.31;82.34;154779.56;5047669;28;20450;-85
2022/09/30 11:01:50;;;;;;;11.07;8.23;;;;;;;13.42;82.58;154808.06;5049457;28;20419;-85
2022/09/30 11:04:23;;;;;;;12.37;8.30;;;;;;;13.33;82.35;154783.44;5040285;28;20454;-86
2022/09/30 11:06:54;;;;;;;9.60;8.13;;;;;;;13.35;82.86;154789.91;5019753;28;20457;-86
2022/09/30 11:09:28;;;;;;;8.90;7.37;;;;;;;13.48;83.48;154821.03;5012590;28;20796;-85
2022/09/30 11:11:59;;;;;;;10.03;7.13;;;;;;;13.41;84.71;154804.19;5018927;28;20490;-85
2022/09/30 11:14:30;;;;;;;8.60;7.63;;;;;;;13.59;82.38;154849.59;5031516;28;20444;-85
2022/09/30 11:17:06;;;;;;;8.80;7.00;;;;;;;13.74;80.44;154888.56;5031334;28;20499;-85
2022/09/30 11:19:37;;;;;;;10.53;7.70;;;;;;;13.63;81.14;154860.00;5014298;28;20482;-85
2022/09/30 11:22:19;;;;;;;10.67;6.10;;;;;;;13.69;79.52;154876.84;5027973;28;20467;-86
2022/09/30 11:24:48;;;;;;;9.37;6.67;;;;;;;13.85;79.27;154918.38;5012876;28;20443;-86
2022/09/30 11:27:21;;;;;;;8.03;5.63;;;;;;;13.62;78.96;154858.69;5013881;28;20816;-86
2022/09/30 11:29:57;;;;;;;8.43;6.10;;;;;;;13.70;78.49;154878.16;5022321;28;20439;-86